Darstellungsparameter: Aktuell verwendete Einstellungen:
Skalierung der Graphiken ... ?
xyx+y,   Skalierungsfaktor:      Skalierung: Modus: x, Faktor: 1
Darstellungszeitraum ... ?
Vom - - bis: - -   Zeitraum: 26.01.2011 - 26.01.2011
Min/Max/Avg-Anzeige ... ?
Zeige MMA aktuell
Zeige MMA Monat
Zeige MMA alles
Zeige --A aktuell
Zeige --A Monat
Zeige --A alles
Keine MMA-Anzeige
MMA:
Average (ber die Originaldaten)
MMA-Basis: 26.01.2011 - 26.01.2011
Quicknavigation für Darstellung... ?
Tage:      1T, 2T, 3T, 5T -1T -2T -3T -5T +1T +2T +3T +5T
Wochen: 1W, 2W, 3W -1W -2W -3W +1W +2W +3W
Monate: 1M, 3M, 6M -1M -3M -6M +1M +3M +6M
Jahre:    1J, 3J, 5J, 10J -1J -3J -5J -10J +1J +3J +5J +10J
Nutze für die Darstellung ... ?
Originaldaten oder Mittelwerte auf ...
Stundenbasis Tagesbasis Wochenbasis
Monatsbasis Jahresbasis      Datenbasis: Original-Daten
Darstellen als:
Statistik (Auto) Statistik J:M      Darstellung:
Zur Graphik,    zurück zur Übersicht aller Sensoren.
 
Tabellarische Datenbersicht: ?
 
Sensor: Nr:Datum:Temp:Abs-Feuchte:Windchill:Wind:
Aussen-T/F 1 26-01-2011 00:03:03 1 C 4.41 g/m*3 1 C 0 km/h
2 26-01-2011 00:15:03 1.1 C 4.49 g/m*3 1.1 C 0 km/h
3 26-01-2011 00:27:03 1.1 C 4.44 g/m*3 1.1 C 0 km/h
4 26-01-2011 00:39:03 0.4 C 4.23 g/m*3 0.4 C 0 km/h
5 26-01-2011 00:51:03 -0.4 C 4.01 g/m*3 -0.4 C 0 km/h
6 26-01-2011 01:03:03 -0.5 C 4.03 g/m*3 -0.5 C 0 km/h
7 26-01-2011 01:15:03 -0.4 C 4.1 g/m*3 -0.4 C 0 km/h
8 26-01-2011 01:27:03 -0.5 C 4.12 g/m*3 -0.5 C 0 km/h
9 26-01-2011 01:39:03 -0.6 C 4.09 g/m*3 -0.6 C 0 km/h
10 26-01-2011 01:51:03 -0.9 C 4.01 g/m*3 -0.9 C 0 km/h
11 26-01-2011 02:03:04 -0.7 C 4.11 g/m*3 -0.7 C 0 km/h
12 26-01-2011 02:15:04 -0.5 C 4.17 g/m*3 -0.5 C 0 km/h
13 26-01-2011 02:27:04 -0.5 C 4.17 g/m*3 -0.5 C 0 km/h
14 26-01-2011 02:39:04 -0.7 C 4.11 g/m*3 -0.7 C 0 km/h
15 26-01-2011 02:51:04 -0.7 C 4.11 g/m*3 -0.7 C 0 km/h
16 26-01-2011 03:03:04 -0.5 C 4.21 g/m*3 -0.5 C 0 km/h
17 26-01-2011 03:15:04 -0.5 C 4.21 g/m*3 -0.5 C 0 km/h
18 26-01-2011 03:27:04 -0.5 C 4.21 g/m*3 -0.5 C 0 km/h
19 26-01-2011 03:39:04 -0.5 C 4.21 g/m*3 -0.5 C 0 km/h
20 26-01-2011 03:51:04 -0.6 C 4.18 g/m*3 -0.6 C 0 km/h
21 26-01-2011 04:03:04 -0.6 C 4.18 g/m*3 -0.6 C 0 km/h
22 26-01-2011 04:15:04 -0.5 C 4.21 g/m*3 -0.5 C 0 km/h
23 26-01-2011 04:27:04 -0.4 C 4.24 g/m*3 -0.4 C 0 km/h
24 26-01-2011 04:39:04 -0.5 C 4.26 g/m*3 -0.5 C 0 km/h
25 26-01-2011 04:51:04 -0.3 C 4.32 g/m*3 -0.3 C 0 km/h
Sensor: Nr:Datum:Temp:Abs-Feuchte:Windchill:Wind:
Aussen-T/F 26 26-01-2011 05:03:04 -0.3 C 4.32 g/m*3 -0.3 C 0 km/h
27 26-01-2011 05:15:04 -0.2 C 4.35 g/m*3 -0.2 C 0 km/h
28 26-01-2011 05:27:04 -0.2 C 4.35 g/m*3 -0.2 C 0 km/h
29 26-01-2011 05:39:04 -0.2 C 4.35 g/m*3 -0.2 C 0 km/h
30 26-01-2011 05:51:04 -0.1 C 4.38 g/m*3 -0.1 C 0 km/h
31 26-01-2011 06:03:05 -0.1 C 4.38 g/m*3 -0.1 C 0 km/h
32 26-01-2011 06:15:05 -0.1 C 4.38 g/m*3 -0.1 C 0 km/h
33 26-01-2011 06:27:05 -0.2 C 4.35 g/m*3 -0.2 C 0 km/h
34 26-01-2011 06:39:05 -0.2 C 4.35 g/m*3 -0.2 C 0 km/h
35 26-01-2011 06:51:05 -0.2 C 4.35 g/m*3 -0.2 C 0 km/h
36 26-01-2011 07:03:05 -0.2 C 4.35 g/m*3 -0.2 C 0 km/h
37 26-01-2011 07:15:02 -0.1 C 4.38 g/m*3 -0.1 C 0 km/h
38 26-01-2011 07:27:02 -0.2 C 4.35 g/m*3 -0.2 C 0 km/h
39 26-01-2011 07:39:03 -0.3 C 4.32 g/m*3 -0.3 C 0 km/h
40 26-01-2011 07:51:02 -0.3 C 4.32 g/m*3 -0.3 C 0 km/h
41 26-01-2011 08:03:02 -0.2 C 4.35 g/m*3 -0.2 C 0 km/h
42 26-01-2011 08:15:02 -0.1 C 4.38 g/m*3 -0.1 C 0 km/h
43 26-01-2011 08:27:02 0 C 4.41 g/m*3 0 C 0 km/h
44 26-01-2011 08:39:02 0.2 C 4.47 g/m*3 0.2 C 0 km/h
45 26-01-2011 08:51:01 0.3 C 4.55 g/m*3 0.3 C 0 km/h
46 26-01-2011 09:03:02 0.4 C 4.58 g/m*3 0.4 C 0 km/h
47 26-01-2011 09:15:01 0.5 C 4.61 g/m*3 0.5 C 0 km/h
48 26-01-2011 09:27:01 0.6 C 4.65 g/m*3 0.6 C 0 km/h
49 26-01-2011 09:39:02 0.8 C 4.71 g/m*3 0.8 C 0 km/h
50 26-01-2011 09:51:02 1 C 4.72 g/m*3 1 C 0 km/h
Sensor: Nr:Datum:Temp:Abs-Feuchte:Windchill:Wind:
Aussen-T/F 51 26-01-2011 10:03:02 1.1 C 4.7 g/m*3 1.1 C 0 km/h
52 26-01-2011 10:15:02 1.5 C 4.83 g/m*3 1.5 C 0 km/h
53 26-01-2011 10:27:02 1.6 C 4.81 g/m*3 1.6 C 0 km/h
54 26-01-2011 10:39:02 1.7 C 4.85 g/m*3 1.7 C 0 km/h
55 26-01-2011 10:51:02 2.1 C 4.87 g/m*3 2.1 C 0 km/h
56 26-01-2011 11:03:03 2.1 C 4.76 g/m*3 2.1 C 0 km/h
57 26-01-2011 11:15:02 2.3 C 4.71 g/m*3 2.3 C 0 km/h
58 26-01-2011 11:27:02 2.6 C 4.69 g/m*3 2.6 C 0 km/h
59 26-01-2011 11:39:02 2.6 C 4.34 g/m*3 2.6 C 0 km/h
60 26-01-2011 11:51:02 2.8 C 4.22 g/m*3 2.8 C 0 km/h
61 26-01-2011 12:03:02 3.2 C 4.16 g/m*3 3.2 C 0 km/h
62 26-01-2011 12:15:02 3.4 C 4.09 g/m*3 3.4 C 0 km/h
63 26-01-2011 12:27:02 3.6 C 4.02 g/m*3 3.6 C 0 km/h
64 26-01-2011 12:39:02 3.7 C 4.11 g/m*3 3.7 C 0 km/h
65 26-01-2011 12:51:01 3.9 C 4.11 g/m*3 3.9 C 0 km/h
66 26-01-2011 13:03:02 3.7 C 4.05 g/m*3 3.7 C 0 km/h
67 26-01-2011 13:15:02 3.3 C 3.94 g/m*3 3.3 C 0 km/h
68 26-01-2011 13:27:02 3.3 C 4 g/m*3 3.3 C 0 km/h
69 26-01-2011 13:39:02 3.1 C 4.01 g/m*3 3.1 C 0 km/h
70 26-01-2011 13:51:01 2.8 C 3.99 g/m*3 2.8 C 0 km/h
71 26-01-2011 14:03:02 3.1 C 4.01 g/m*3 3.1 C 0 km/h
72 26-01-2011 14:15:01 3.4 C 3.91 g/m*3 3.4 C 0 km/h
73 26-01-2011 14:27:01 3.5 C 3.87 g/m*3 3.5 C 0 km/h
74 26-01-2011 14:39:01 3.5 C 3.94 g/m*3 3.5 C 0 km/h
75 26-01-2011 14:51:01 3.2 C 3.8 g/m*3 3.2 C 0 km/h
Sensor: Nr:Datum:Temp:Abs-Feuchte:Windchill:Wind:
Aussen-T/F 76 26-01-2011 15:03:02 3.2 C 3.86 g/m*3 3.2 C 0 km/h
77 26-01-2011 15:15:01 2.9 C 3.78 g/m*3 2.9 C 0 km/h
78 26-01-2011 15:27:01 3.4 C 3.85 g/m*3 3.4 C 0 km/h
79 26-01-2011 15:39:01 3.7 C 3.93 g/m*3 3.7 C 0 km/h
80 26-01-2011 15:51:01 3.4 C 3.79 g/m*3 3.4 C 0 km/h
81 26-01-2011 16:03:02 3.1 C 3.71 g/m*3 3.1 C 0 km/h
82 26-01-2011 16:15:01 2.7 C 3.96 g/m*3 2.7 C 0 km/h
83 26-01-2011 16:27:01 2.2 C 4.11 g/m*3 2.2 C 0 km/h
84 26-01-2011 16:39:01 1.7 C 4.14 g/m*3 1.7 C 0 km/h
85 26-01-2011 16:51:01 1.5 C 4.24 g/m*3 1.5 C 0 km/h
86 26-01-2011 17:03:02 1.2 C 4.26 g/m*3 1.2 C 0 km/h
87 26-01-2011 17:15:02 0.6 C 4.19 g/m*3 0.6 C 0 km/h
88 26-01-2011 17:27:02 0.6 C 4.29 g/m*3 0.6 C 0 km/h
89 26-01-2011 17:39:02 0.7 C 4.32 g/m*3 0.7 C 0 km/h
90 26-01-2011 17:51:03 0.7 C 4.32 g/m*3 0.7 C 0 km/h
91 26-01-2011 18:03:02 0.5 C 4.26 g/m*3 0.5 C 0 km/h
92 26-01-2011 18:15:02 0.6 C 4.29 g/m*3 0.6 C 0 km/h
93 26-01-2011 18:27:02 0.7 C 4.32 g/m*3 0.7 C 0 km/h
94 26-01-2011 18:39:02 0.7 C 4.32 g/m*3 0.7 C 0 km/h
95 26-01-2011 18:51:02 0.7 C 4.27 g/m*3 0.7 C 0 km/h
96 26-01-2011 19:03:02 0.5 C 4.21 g/m*3 0.5 C 0 km/h
97 26-01-2011 19:15:03 0.5 C 4.21 g/m*3 0.5 C 0 km/h
98 26-01-2011 19:27:03 0.4 C 4.23 g/m*3 0.4 C 0 km/h
99 26-01-2011 19:39:02 0.3 C 4.2 g/m*3 0.3 C 0 km/h
100 26-01-2011 19:51:02 0.5 C 4.31 g/m*3 0.5 C 0 km/h
Sensor: Nr:Datum:Temp:Abs-Feuchte:Windchill:Wind:
Aussen-T/F 101 26-01-2011 20:03:02 0.5 C 4.31 g/m*3 0.5 C 0 km/h
102 26-01-2011 20:15:03 0.4 C 4.28 g/m*3 0.4 C 0 km/h
103 26-01-2011 20:27:03 0.6 C 4.34 g/m*3 0.6 C 0 km/h
104 26-01-2011 20:39:02 0.5 C 4.31 g/m*3 0.5 C 0 km/h
105 26-01-2011 20:51:02 0.5 C 4.31 g/m*3 0.5 C 0 km/h
106 26-01-2011 21:03:02 0.6 C 4.34 g/m*3 0.6 C 0 km/h
107 26-01-2011 21:15:02 0.6 C 4.34 g/m*3 0.6 C 0 km/h
108 26-01-2011 21:27:03 0.6 C 4.29 g/m*3 0.6 C 0 km/h
109 26-01-2011 21:39:02 0.5 C 4.21 g/m*3 0.5 C 0 km/h
110 26-01-2011 21:51:02 0.3 C 4.11 g/m*3 0.3 C 0 km/h
111 26-01-2011 22:04:02 0.2 C 4.13 g/m*3 0.2 C 0 km/h
112 26-01-2011 22:16:02 0.1 C 4.1 g/m*3 0.1 C 0 km/h
113 26-01-2011 22:28:02 -0.4 C 3.91 g/m*3 -0.4 C 0 km/h
114 26-01-2011 22:40:02 -0.3 C 3.94 g/m*3 -0.3 C 0 km/h
115 26-01-2011 22:52:02 -0.4 C 3.96 g/m*3 -0.4 C 0 km/h
116 26-01-2011 23:04:02 -0.6 C 3.9 g/m*3 -0.6 C 0 km/h
117 26-01-2011 23:16:02 -0.7 C 3.88 g/m*3 -0.7 C 0 km/h
118 26-01-2011 23:28:03 -1 C 3.8 g/m*3 -1 C 0 km/h
119 26-01-2011 23:40:03 -1.1 C 3.82 g/m*3 -1.1 C 0 km/h
120 26-01-2011 23:52:03 -1 C 3.89 g/m*3 -1 C 0 km/h

Legende:
   Min
   Max


Maximal/Minimal-Werte vom 26.01.2011 - 26.01.2011

Sensor Min Max Avg
Temp
(Aussen-T/F)
-1.1 °C
26-01-2011  23:40:03
3.9 °C
26-01-2011  12:51:01
0.84 °C
Abs-Feuchte
(Aussen-T/F)
3.71 g/m*3
26-01-2011  16:03:02
4.87 g/m*3
26-01-2011  10:51:02
4.2 g/m*3
Windchill
(Aussen-T/F)
-1.1 C
26-01-2011  23:40:03
3.9 C
26-01-2011  12:51:01
0.83 C

Die Daten stammen von einer Davis Vantage Pro 2 Wetter-Station und werden unter Linux mit der Software wview2wettercgi und aufbereitet. Alle Angaben erfolgen ohne Gewähr für ihre Vollständigkeit oder Richtigkeit.
Kontakt: Rainer Krienke krienke@uni-koblenz.de . Meine Webseiten an der Uni Koblenz oder privat.
Version: $Revision: 0.78 $